Time;durP1;ratioP1;P1;durP2;ratioP2;P2;SDS_P1;SDS_P2;PMS_P1;PMS_P2;Temp;Humidity;BMP_temperature;BMP_pressure;BME280_temperature;BME280_humidity;BME280_pressure;Samples;Min_cycle;Max_cycle;Signal;HPM_P1;HPM_P2
2023/06/20 00:05:47;;;;;;;;;;;;;;;20.79;62.67;100911.34;15696904;28;20045;-48
2023/06/20 00:13:20;;;;;;;1079.55;943.85;;;;;;;20.79;62.87;100913.25;15676095;28;19971;-48
2023/06/20 00:20:54;;;;;;;1006.15;900.88;;;;;;;20.75;62.79;100909.44;15679166;28;20049;-49
2023/06/20 00:28:27;;;;;;;896.60;807.45;;;;;;;20.84;62.53;100894.16;15694408;28;20073;-48
2023/06/20 00:36:01;;;;;;;787.67;715.90;;;;;;;20.75;63.49;100883.00;15679111;28;20049;-48
2023/06/20 00:43:34;;;;;;;487.30;444.48;;;;;;;20.84;62.77;100881.34;15675380;28;20045;-48
2023/06/20 00:51:09;;;;;;;;;;;;;;;20.77;63.50;100880.00;15675202;28;20052;-47
2023/06/20 00:58:43;;;;;;;290.15;261.73;;;;;;;20.69;64.32;100869.63;15695545;28;19928;-48
2023/06/20 01:06:22;;;;;;;;;;;;;;;20.75;63.13;100869.34;15696425;28;20044;-48
2023/06/20 01:14:00;;;;;;;173.98;145.55;;;;;;;20.67;63.56;100867.19;15668712;28;19920;-49
2023/06/20 01:21:41;;;;;;;192.00;115.95;;;;;;;20.70;63.64;100869.34;15681115;28;20139;-46
2023/06/20 01:29:21;;;;;;;165.68;70.15;;;;;;;20.74;63.73;100864.16;15663007;28;20032;-47
2023/06/20 01:36:57;;;;;;;213.60;55.47;;;;;;;20.78;63.79;100857.88;15649537;28;20106;-47
2023/06/20 01:44:33;;;;;;;136.15;43.13;;;;;;;20.89;63.38;100858.69;15645387;28;20445;-51
2023/06/20 01:52:08;;;;;;;125.20;44.72;;;;;;;20.79;63.79;100847.78;15666367;28;20037;-47
2023/06/20 01:59:43;;;;;;;150.75;50.85;;;;;;;20.71;64.50;100853.81;15668461;28;20052;-48
2023/06/20 02:07:18;;;;;;;159.85;59.45;;;;;;;20.82;64.24;100853.50;15688156;28;20109;-47
2023/06/20 02:14:55;;;;;;;187.00;106.35;;;;;;;20.76;64.15;100864.72;15646123;28;20090;-48
2023/06/20 02:22:30;;;;;;;181.30;114.88;;;;;;;20.75;64.33;100853.00;15667660;28;20106;-47
2023/06/20 02:30:09;;;;;;;170.63;139.48;;;;;;;20.80;63.70;100863.91;15662588;28;20120;-49
2023/06/20 02:37:44;;;;;;;164.02;146.60;;;;;;;20.76;64.25;100862.00;15663223;28;20041;-48
2023/06/20 02:45:19;;;;;;;208.23;188.23;;;;;;;20.60;65.63;100866.63;15642244;28;20049;-48
2023/06/20 02:53:02;;;;;;;369.45;338.15;;;;;;;20.82;64.60;100864.41;15665672;28;20072;-50
2023/06/20 03:00:38;;;;;;;553.70;508.67;;;;;;;20.73;65.06;100860.63;15666548;28;20037;-48
2023/06/20 03:08:13;;;;;;;621.70;571.30;;;;;;;20.82;64.24;100864.41;15669040;28;20497;-49
2023/06/20 03:15:49;;;;;;;723.20;661.17;;;;;;;20.76;65.26;100873.72;15667875;28;20071;-48
2023/06/20 03:23:24;;;;;;;779.05;710.90;;;;;;;20.81;64.92;100884.63;15676940;22;20044;-54
2023/06/20 03:30:59;;;;;;;846.60;767.33;;;;;;;20.88;65.60;100884.31;15655645;28;20044;-52
2023/06/20 03:38:33;;;;;;;870.33;790.75;;;;;;;21.00;65.37;100884.84;15672433;28;20044;-51
2023/06/20 03:46:08;;;;;;;1032.13;908.60;;;;;;;21.05;64.90;100889.50;15669355;28;20033;-49
2023/06/20 03:53:42;;;;;;;1094.30;916.60;;;;;;;20.97;65.81;100892.78;15649556;28;20044;-51
2023/06/20 04:01:24;;;;;;;1505.97;989.58;;;;;;;21.13;65.70;100894.38;15689056;28;20036;-56
2023/06/20 04:08:57;;;;;;;1999.90;999.90;;;;;;;21.37;64.25;100902.81;15658608;28;20264;-52
2023/06/20 04:16:32;;;;;;;1999.90;999.90;;;;;;;21.51;63.14;100903.03;15650851;28;20119;-57
2023/06/20 04:24:05;;;;;;;1999.90;999.90;;;;;;;21.61;63.19;100912.00;15650118;28;20466;-56
2023/06/20 04:31:39;;;;;;;1999.90;999.90;;;;;;;21.77;62.76;100910.00;15641233;28;20559;-49
2023/06/20 04:39:12;;;;;;;1999.90;999.90;;;;;;;21.73;62.93;100911.69;15637656;28;20140;-55
2023/06/20 04:46:46;;;;;;;1999.90;999.90;;;;;;;21.70;62.48;100912.22;15633503;28;20041;-54
2023/06/20 04:54:19;;;;;;;1999.90;999.90;;;;;;;21.93;62.12;100916.22;15643018;28;20478;-54
2023/06/20 05:01:55;;;;;;;1738.63;999.90;;;;;;;21.85;61.81;100925.00;15657965;28;20099;-55
2023/06/20 05:09:30;;;;;;;1259.60;982.92;;;;;;;22.15;60.95;100929.53;15658461;28;20048;-59
2023/06/20 05:17:04;;;;;;;1166.47;965.63;;;;;;;22.20;60.41;100934.16;15657970;28;20033;-54
2023/06/20 05:24:40;;;;;;;1026.68;917.38;;;;;;;22.00;61.25;100930.38;15675293;28;20045;-53
2023/06/20 05:32:15;;;;;;;1037.70;926.50;;;;;;;22.28;61.03;100922.59;15657825;28;20401;-57
2023/06/20 05:39:50;;;;;;;999.40;897.70;;;;;;;22.43;60.33;100925.22;15674007;28;20068;-56
2023/06/20 05:47:24;;;;;;;917.38;823.83;;;;;;;22.66;59.75;100932.72;15639891;28;20059;-57
2023/06/20 05:54:57;;;;;;;815.78;740.88;;;;;;;22.59;59.68;100939.59;15639671;28;20406;-55
2023/06/20 06:02:31;;;;;;;246.65;184.93;;;;;;;22.98;58.09;100950.50;15656397;28;20118;-54
2023/06/20 06:10:05;;;;;;;385.83;347.75;;;;;;;23.38;56.72;100949.28;15656246;28;20060;-56
2023/06/20 06:17:41;;;;;;;407.95;369.30;;;;;;;23.26;56.78;100953.53;15689079;28;20053;-56
2023/06/20 06:25:14;;;;;;;173.20;145.23;;;;;;;23.37;57.67;100946.84;15654443;28;20181;-54
2023/06/20 06:32:49;;;;;;;332.33;300.17;;;;;;;24.10;55.63;100932.75;15671314;28;20053;-57
2023/06/20 06:40:22;;;;;;;516.80;467.35;;;;;;;24.32;54.82;100936.84;15670549;28;20076;-51
2023/06/20 06:47:56;;;;;;;561.92;511.55;;;;;;;23.90;55.42;100944.84;15670896;28;20041;-54
2023/06/20 06:55:29;;;;;;;720.30;652.90;;;;;;;24.86;53.45;100928.03;15670094;28;20466;-52
2023/06/20 07:03:03;;;;;;;818.00;735.60;;;;;;;24.76;54.51;100943.84;15676419;28;20036;-54
2023/06/20 07:10:36;;;;;;;749.83;677.47;;;;;;;24.36;53.89;100944.22;15675339;28;20474;-52
2023/06/20 07:18:12;;;;;;;751.42;675.90;;;;;;;24.44;53.28;100959.22;15650655;28;20094;-50
2023/06/20 07:25:45;;;;;;;980.83;873.70;;;;;;;24.77;54.57;100953.75;15668383;28;20060;-50
2023/06/20 07:33:19;;;;;;;914.97;820.22;;;;;;;25.13;54.12;100937.47;15667476;28;20052;-52
2023/06/20 07:40:52;;;;;;;767.42;693.45;;;;;;;24.77;53.57;100934.53;15649727;28;20041;-50
2023/06/20 07:48:29;;;;;;;1030.38;880.92;;;;;;;25.08;54.96;100934.81;15651072;28;20425;-50
2023/06/20 07:56:02;;;;;;;869.50;780.83;;;;;;;25.59;52.98;100929.13;15649444;28;20053;-54
2023/06/20 08:03:37;;;;;;;834.85;754.85;;;;;;;25.63;52.03;100941.16;15679441;28;20076;-54
2023/06/20 08:11:10;;;;;;;990.33;881.20;;;;;;;25.52;52.78;100947.19;15663112;28;20041;-56
2023/06/20 08:18:44;;;;;;;715.97;651.75;;;;;;;24.67;52.63;100971.19;15649797;28;20045;-55
2023/06/20 08:26:18;;;;;;;1100.70;932.63;;;;;;;24.89;53.12;100982.34;15676096;28;20053;-56
2023/06/20 08:33:53;;;;;;;994.45;886.92;;;;;;;24.15;56.13;101004.03;15660675;28;20067;-57
2023/06/20 08:41:26;;;;;;;866.60;777.72;;;;;;;23.57;58.89;101020.59;15659840;28;20072;-53
2023/06/20 08:49:02;;;;;;;854.55;772.15;;;;;;;23.01;60.23;101028.53;15660090;28;20300;-54
2023/06/20 08:56:35;;;;;;;715.40;649.88;;;;;;;22.92;60.30;101063.91;15643723;28;20071;-56
2023/06/20 09:04:11;;;;;;;814.15;735.30;;;;;;;22.46;60.59;101101.63;15700339;28;20068;-57
2023/06/20 09:11:49;;;;;;;477.02;432.35;;;;;;;22.44;62.79;101090.97;15658999;28;20195;-58
2023/06/20 09:19:24;;;;;;;224.32;201.15;;;;;;;21.71;63.86;101117.97;15676291;28;20248;-59
2023/06/20 09:27:03;;;;;;;121.18;62.30;;;;;;;20.92;69.35;101143.84;15659123;28;20132;-51
2023/06/20 09:34:38;;;;;;;236.75;212.93;;;;;;;21.37;69.60;101134.94;15674554;28;20402;-51
2023/06/20 09:42:13;;;;;;;704.60;640.17;;;;;;;21.35;69.97;101117.97;15708830;28;20045;-52
2023/06/20 09:49:57;;;;;;;979.78;876.28;;;;;;;21.30;70.37;101102.38;15686804;28;20041;-55
2023/06/20 09:57:37;;;;;;;1146.88;942.00;;;;;;;21.06;71.71;101077.53;15659862;28;20032;-52
2023/06/20 10:05:13;;;;;;;1306.20;950.42;;;;;;;21.32;70.80;101083.84;15701839;28;20067;-50
2023/06/20 10:12:46;;;;;;;1999.90;904.17;;;;;;;21.42;70.85;101091.22;15689384;28;20128;-53
2023/06/20 10:20:31;;;;;;;1802.00;218.27;;;;;;;21.27;71.55;101094.75;15655583;28;20071;-56
2023/06/20 10:28:05;;;;;;;1999.90;999.90;;;;;;;21.05;72.80;101088.72;15655399;28;20510;-52
2023/06/20 10:35:50;;;;;;;1999.90;863.85;;;;;;;21.18;72.65;101071.00;15637588;28;20053;-53
2023/06/20 10:43:24;;;;;;;1999.90;999.90;;;;;;;20.99;73.44;101071.53;15728932;28;20497;-47
2023/06/20 10:51:03;;;;;;;1999.90;999.90;;;;;;;21.21;73.75;101067.72;15658941;28;20070;-53
2023/06/20 10:58:36;;;;;;;1999.90;999.90;;;;;;;21.20;74.42;101041.50;15665334;28;20054;-47
2023/06/20 11:06:15;;;;;;;1999.90;999.90;;;;;;;20.88;75.97;101023.47;15706348;28;20432;-47
2023/06/20 11:13:50;;;;;;;1999.90;999.90;;;;;;;21.07;75.29;101021.03;15653095;28;20520;-48
2023/06/20 11:21:25;;;;;;;1999.90;999.90;;;;;;;21.58;74.45;101016.34;15635627;28;20037;-53
2023/06/20 11:29:01;;;;;;;886.50;797.40;;;;;;;21.54;74.62;101020.75;15651602;28;20037;-53
2023/06/20 11:36:37;;;;;;;976.60;873.17;;;;;;;22.03;72.71;101016.47;15654344;28;20047;-47
2023/06/20 11:44:22;;;;;;;957.38;858.58;;;;;;;22.00;73.34;101008.84;15727750;28;20049;-50
2023/06/20 11:51:56;;;;;;;959.35;850.03;;;;;;;22.45;71.95;101002.34;15656504;28;20155;-49
2023/06/20 11:59:31;;;;;;;1014.42;862.78;;;;;;;22.97;71.29;100994.59;15669284;28;20131;-53
2023/06/20 12:07:06;;;;;;;805.30;736.88;;;;;;;23.49;68.90;100990.25;15671391;28;20048;-54
2023/06/20 12:14:39;;;;;;;610.58;561.47;;;;;;;23.50;67.20;100961.75;15674965;28;20076;-53
2023/06/20 12:22:13;;;;;;;749.28;686.47;;;;;;;24.84;65.62;100957.72;15670064;28;20053;-53
2023/06/20 12:29:46;;;;;;;674.90;620.65;;;;;;;25.19;64.29;100947.25;15667350;28;20060;-49
2023/06/20 12:37:22;;;;;;;1343.95;631.33;;;;;;;25.26;61.56;100955.09;15648809;28;20033;-55
2023/06/20 12:44:54;;;;;;;1629.90;744.65;;;;;;;25.88;61.34;100939.00;15665211;28;20041;-52
2023/06/20 12:52:29;;;;;;;1246.35;693.63;;;;;;;26.39;59.87;100937.84;15659561;28;20057;-46
2023/06/20 13:00:04;;;;;;;849.63;572.50;;;;;;;26.26;59.67;100956.06;15647293;28;20110;-49
2023/06/20 13:07:40;;;;;;;1524.57;499.65;;;;;;;26.64;57.47;100953.78;15667704;28;20501;-46
2023/06/20 13:15:19;;;;;;;1417.88;746.13;;;;;;;27.33;58.79;100952.59;15657994;28;20052;-48
2023/06/20 13:22:53;;;;;;;1999.90;547.53;;;;;;;27.30;56.82;100945.75;15675459;28;20474;-51
2023/06/20 13:30:26;;;;;;;1948.90;691.22;;;;;;;26.85;55.92;100953.28;15652399;28;20045;-51
2023/06/20 13:38:00;;;;;;;1999.90;999.90;;;;;;;27.37;55.72;100942.53;15674062;28;20048;-51
2023/06/20 13:45:34;;;;;;;1942.57;810.58;;;;;;;26.77;55.54;100941.09;15639082;28;20048;-52
2023/06/20 13:53:09;;;;;;;1999.90;999.90;;;;;;;26.10;57.48;100941.00;15674848;28;20114;-48
2023/06/20 14:00:42;;;;;;;1999.90;999.90;;;;;;;26.50;56.51;100931.03;15673202;28;20186;-51
2023/06/20 14:08:17;;;;;;;1999.90;996.92;;;;;;;26.51;56.42;100918.06;15671681;28;20445;-51
2023/06/20 14:15:50;;;;;;;1999.90;999.90;;;;;;;26.39;56.68;100913.06;15672636;28;20057;-49
2023/06/20 14:23:24;;;;;;;1999.90;999.90;;;;;;;26.22;55.50;100904.69;15654549;28;20059;-51
2023/06/20 14:30:57;;;;;;;1999.90;999.90;;;;;;;25.99;54.85;100888.16;15667285;28;20055;-54
2023/06/20 14:38:39;;;;;;;1999.90;999.90;;;;;;;26.05;56.37;100875.09;15671835;28;20377;-52
2023/06/20 14:46:12;;;;;;;1999.90;999.90;;;;;;;25.85;55.76;100885.44;15653097;28;20436;-53
2023/06/20 14:53:46;;;;;;;1999.90;999.90;;;;;;;26.12;56.14;100868.06;15671103;28;20076;-48
2023/06/20 15:01:19;;;;;;;1999.90;999.90;;;;;;;26.47;54.78;100876.56;15652350;28;20065;-51
2023/06/20 15:08:54;;;;;;;1999.90;995.88;;;;;;;25.94;58.33;100880.84;15669928;28;20120;-48
2023/06/20 15:16:27;;;;;;;1999.90;999.90;;;;;;;26.27;55.63;100866.06;15669315;28;20502;-46
2023/06/20 15:24:02;;;;;;;1999.90;999.90;;;;;;;26.28;54.21;100874.00;15665152;22;20050;-56
2023/06/20 15:31:34;;;;;;;1999.90;999.90;;;;;;;26.37;54.08;100860.28;15718989;28;20503;-52
2023/06/20 15:39:09;;;;;;;1999.90;999.90;;;;;;;26.13;54.63;100853.16;15792011;28;20105;-53
2023/06/20 15:46:42;;;;;;;1999.90;999.90;;;;;;;26.28;54.26;100854.72;15794822;28;20071;-52
2023/06/20 15:54:16;;;;;;;1999.90;999.90;;;;;;;25.86;55.13;100845.81;15779885;28;20040;-52
2023/06/20 16:01:49;;;;;;;1999.90;999.90;;;;;;;26.68;53.40;100839.16;15798352;28;20048;-54
2023/06/20 16:09:23;;;;;;;1999.90;999.90;;;;;;;26.24;54.41;100828.97;15779853;28;20036;-52
2023/06/20 16:16:56;;;;;;;1999.90;999.90;;;;;;;25.82;55.51;100831.06;15779459;28;20054;-50
2023/06/20 16:24:30;;;;;;;1999.90;999.90;;;;;;;26.63;53.59;100827.47;15779695;28;20039;-52
2023/06/20 16:32:04;;;;;;;1999.90;999.90;;;;;;;26.75;54.13;100819.41;15779471;28;20045;-53
2023/06/20 16:39:38;;;;;;;1999.90;999.90;;;;;;;26.80;54.42;100811.00;15797154;28;20297;-53
2023/06/20 16:47:11;;;;;;;1999.90;999.90;;;;;;;26.71;54.83;100810.16;15791434;28;20514;-52
2023/06/20 16:54:46;;;;;;;1999.90;999.90;;;;;;;26.84;54.78;100816.69;15770141;28;20044;-51
2023/06/20 17:02:19;;;;;;;1999.90;999.90;;;;;;;26.55;55.37;100815.25;15790583;28;20175;-53
2023/06/20 17:09:54;;;;;;;1999.90;865.10;;;;;;;26.89;55.35;100811.84;15807966;28;20036;-54
2023/06/20 17:17:26;;;;;;;1877.70;812.10;;;;;;;26.38;56.11;100810.44;15807447;28;20404;-52
2023/06/20 17:25:01;;;;;;;1999.90;869.80;;;;;;;26.44;56.26;100803.72;15788005;28;20191;-52
2023/06/20 17:32:35;;;;;;;1999.90;999.90;;;;;;;26.84;55.83;100805.66;15772423;28;20072;-51
2023/06/20 17:40:13;;;;;;;1999.90;999.90;;;;;;;26.23;56.92;100799.81;15805766;28;20040;-54
2023/06/20 17:47:47;;;;;;;1999.90;999.90;;;;;;;26.27;57.19;100800.00;15802410;28;20093;-53
2023/06/20 17:55:21;;;;;;;1999.90;999.90;;;;;;;26.70;57.19;100798.31;15786806;28;20117;-51
2023/06/20 18:02:54;;;;;;;1999.90;999.90;;;;;;;26.59;56.66;100791.47;15804096;28;20469;-52
2023/06/20 18:10:28;;;;;;;1999.90;999.90;;;;;;;26.67;56.70;100771.44;15785997;28;20040;-49
2023/06/20 18:18:01;;;;;;;1999.90;874.67;;;;;;;26.30;57.90;100767.19;15790585;28;20048;-52
2023/06/20 18:25:36;;;;;;;1999.90;768.00;;;;;;;26.30;58.08;100769.09;15769569;28;20412;-52
2023/06/20 18:33:09;;;;;;;1999.90;997.42;;;;;;;26.56;57.79;100767.31;15813415;28;20036;-53
2023/06/20 18:40:43;;;;;;;1999.90;968.85;;;;;;;26.26;58.51;100759.88;15784425;28;20046;-54
2023/06/20 18:48:16;;;;;;;1999.90;960.30;;;;;;;26.23;58.28;100769.56;15784086;28;20546;-54
2023/06/20 18:55:51;;;;;;;1999.90;999.90;;;;;;;26.25;58.61;100759.03;15801586;28;20675;-51
2023/06/20 19:03:24;;;;;;;1999.90;999.90;;;;;;;26.28;58.73;100752.09;15800848;28;20110;-50
2023/06/20 19:10:58;;;;;;;1999.90;843.85;;;;;;;26.18;60.35;100758.69;15801918;28;20101;-57
2023/06/20 19:18:31;;;;;;;1999.90;723.28;;;;;;;25.92;60.54;100764.81;15802614;28;20138;-55
2023/06/20 19:26:08;;;;;;;1999.90;936.90;;;;;;;25.68;61.88;100764.28;15781308;28;20063;-52
2023/06/20 19:33:41;;;;;;;1999.90;999.90;;;;;;;25.38;62.50;100771.28;15799712;28;20135;-53
2023/06/20 19:41:15;;;;;;;1999.90;980.78;;;;;;;25.18;62.41;100776.13;15764586;28;20050;-57
2023/06/20 19:48:48;;;;;;;1999.90;898.75;;;;;;;24.96;63.28;100784.25;15798669;28;20094;-53
2023/06/20 19:56:24;;;;;;;1999.90;797.38;;;;;;;24.81;63.57;100779.06;15777538;28;20131;-53
2023/06/20 20:03:58;;;;;;;1999.90;868.08;;;;;;;24.61;63.95;100777.50;15798397;28;20036;-53
2023/06/20 20:11:32;;;;;;;1591.10;801.67;;;;;;;24.75;63.93;100775.56;15796911;28;20044;-57
2023/06/20 20:19:05;;;;;;;1337.03;820.55;;;;;;;24.65;64.07;100778.53;15783249;28;20527;-54
2023/06/20 20:26:39;;;;;;;999.95;810.63;;;;;;;24.53;64.41;100781.78;15791229;28;20051;-54
2023/06/20 20:34:12;;;;;;;954.70;819.13;;;;;;;24.37;65.11;100783.16;15808000;28;20054;-53
2023/06/20 20:41:47;;;;;;;928.45;829.78;;;;;;;24.25;65.20;100772.66;15790320;28;20044;-55
2023/06/20 20:49:20;;;;;;;925.58;831.63;;;;;;;24.09;66.09;100782.25;15789897;28;20048;-53
2023/06/20 20:56:55;;;;;;;951.38;852.63;;;;;;;24.01;66.30;100793.88;15788461;28;20275;-53
2023/06/20 21:04:28;;;;;;;901.65;815.15;;;;;;;23.90;66.28;100780.34;15807857;28;20141;-52
2023/06/20 21:12:04;;;;;;;895.17;809.88;;;;;;;23.68;66.90;100769.16;15808167;28;20052;-52
2023/06/20 21:19:37;;;;;;;885.38;803.50;;;;;;;23.56;66.98;100775.09;15788003;28;20051;-52
2023/06/20 21:27:11;;;;;;;892.20;808.30;;;;;;;23.45;67.85;100778.25;15774502;22;20079;-55
2023/06/20 21:34:44;;;;;;;879.55;797.97;;;;;;;23.38;67.95;100759.44;15740810;28;20076;-55
2023/06/20 21:42:18;;;;;;;888.90;809.13;;;;;;;23.42;67.54;100750.34;15800206;28;20456;-53
2023/06/20 21:49:51;;;;;;;856.67;778.28;;;;;;;23.47;67.06;100757.69;15796730;28;20051;-54
2023/06/20 21:57:26;;;;;;;865.92;785.90;;;;;;;23.44;67.25;100744.56;15797989;28;20507;-51
2023/06/20 22:04:58;;;;;;;876.45;796.03;;;;;;;23.45;67.65;100743.44;15780791;28;20056;-56
2023/06/20 22:12:52;;;;;;;869.47;789.08;;;;;;;23.30;67.75;100749.16;15768987;28;20044;-54
2023/06/20 22:20:25;;;;;;;847.22;771.70;;;;;;;23.11;68.49;100740.91;15780827;28;20131;-52
2023/06/20 22:27:59;;;;;;;837.20;763.58;;;;;;;23.03;68.03;100727.88;15778050;28;20048;-54
2023/06/20 22:35:31;;;;;;;826.60;751.35;;;;;;;22.94;68.41;100738.66;15778468;28;20048;-55
2023/06/20 22:43:06;;;;;;;848.53;773.40;;;;;;;22.83;69.36;100748.91;15777519;28;20043;-52
2023/06/20 22:50:39;;;;;;;845.25;771.10;;;;;;;22.73;69.37;100746.28;15778270;28;20475;-52
2023/06/20 22:58:13;;;;;;;819.58;749.40;;;;;;;22.53;69.69;100719.97;15777816;28;20089;-53
2023/06/20 23:05:46;;;;;;;824.35;754.42;;;;;;;22.54;69.45;100704.38;15777630;28;20055;-53
2023/06/20 23:13:23;;;;;;;864.03;786.97;;;;;;;22.04;72.37;100695.56;15777030;28;20048;-52
2023/06/20 23:20:56;;;;;;;905.00;821.50;;;;;;;22.14;71.97;100690.00;15794262;28;20484;-51
2023/06/20 23:28:30;;;;;;;914.40;827.15;;;;;;;22.18;71.87;100674.66;15774633;28;20109;-50
2023/06/20 23:36:04;;;;;;;929.40;838.10;;;;;;;22.29;71.38;100672.63;15775321;28;20214;-52
2023/06/20 23:43:43;;;;;;;898.17;810.70;;;;;;;22.18;71.80;100658.25;15774675;28;20047;-56
2023/06/20 23:51:16;;;;;;;868.40;785.13;;;;;;;21.83;73.16;100643.03;15792408;28;20134;-53
2023/06/20 23:58:50;;;;;;;868.58;784.28;;;;;;;21.89;73.38;100647.31;15757597;28;20043;-54
